createdAt,value
2023-03-12T00:01:35.196Z,7.75
2023-03-12T00:06:38.989Z,8.07
2023-03-12T00:11:44.112Z,8.13
2023-03-12T00:16:47.935Z,8.43
2023-03-12T00:21:51.642Z,6.57
2023-03-12T00:26:56.717Z,11.00
2023-03-12T00:32:00.590Z,9.18
2023-03-12T00:37:04.366Z,9.52
2023-03-12T00:42:09.497Z,15.55
2023-03-12T00:47:14.430Z,15.10
2023-03-12T00:52:18.282Z,12.32
2023-03-12T00:57:23.517Z,9.93
2023-03-12T01:02:27.524Z,16.40
2023-03-12T01:07:32.775Z,11.73
2023-03-12T01:12:37.904Z,7.03
2023-03-12T01:17:41.626Z,9.98
2023-03-12T01:22:45.406Z,16.02
2023-03-12T01:27:50.501Z,8.57
2023-03-12T01:32:54.320Z,11.15
2023-03-12T01:37:58.041Z,12.88
2023-03-12T01:43:24.867Z,10.95
2023-03-12T01:48:30.205Z,14.02
2023-03-12T01:53:34.937Z,14.93
2023-03-12T01:58:46.305Z,11.75
2023-03-12T02:03:54.841Z,12.25
2023-03-12T02:09:02.326Z,12.90
2023-03-12T02:14:08.055Z,15.23
2023-03-12T02:19:20.540Z,10.77
2023-03-12T02:24:34.678Z,15.07
2023-03-12T02:29:43.041Z,12.23
2023-03-12T02:34:48.120Z,6.72
2023-03-12T02:39:58.845Z,10.30
2023-03-12T02:45:04.909Z,8.95
2023-03-12T02:50:10.202Z,8.85
2023-03-12T02:55:14.002Z,11.38
2023-03-12T03:00:20.785Z,13.77
2023-03-12T03:05:25.093Z,11.85
2023-03-12T03:10:28.913Z,8.70
2023-03-12T03:15:34.418Z,15.40
2023-03-12T03:20:38.464Z,10.93
2023-03-12T03:25:42.210Z,18.35
2023-03-12T03:30:47.638Z,10.93
2023-03-12T03:35:51.802Z,9.98
2023-03-12T03:40:56.166Z,10.38
2023-03-12T03:46:03.002Z,12.65
2023-03-12T03:51:09.303Z,14.38
2023-03-12T03:56:15.882Z,11.38
2023-03-12T04:01:22.205Z,17.35
2023-03-12T04:06:26.224Z,9.45
2023-03-12T04:11:30.163Z,7.97
2023-03-12T04:16:35.520Z,13.88
2023-03-12T04:21:39.588Z,13.18
2023-03-12T04:26:44.129Z,10.27
2023-03-12T04:31:49.953Z,12.00
2023-03-12T04:36:53.867Z,15.38
2023-03-12T04:41:58.666Z,16.98
2023-03-12T04:47:05.153Z,11.63
2023-03-12T04:52:09.677Z,15.30
2023-03-12T04:57:13.596Z,12.98
2023-03-12T05:02:19.698Z,19.37
2023-03-12T05:07:23.762Z,12.93
2023-03-12T05:12:27.959Z,15.32
2023-03-12T05:17:33.123Z,11.80
2023-03-12T05:22:37.407Z,12.80
2023-03-12T05:27:41.311Z,9.32
2023-03-12T05:32:47.108Z,7.62
2023-03-12T05:37:50.972Z,15.75
2023-03-12T05:42:54.868Z,13.38
2023-03-12T05:48:01.529Z,14.73
2023-03-12T05:53:05.535Z,12.45
2023-03-12T05:58:09.658Z,12.68
2023-03-12T06:03:15.706Z,9.93
2023-03-12T06:08:19.764Z,15.55
2023-03-12T06:13:24.031Z,16.02
2023-03-12T06:18:29.220Z,21.20
2023-03-12T06:23:33.222Z,16.08
2023-03-12T06:28:37.210Z,16.55
2023-03-12T06:33:42.795Z,10.98
2023-03-12T06:38:46.636Z,18.35
2023-03-12T06:43:50.548Z,14.50
2023-03-12T06:48:56.015Z,15.18
2023-03-12T06:54:01.124Z,13.23
2023-03-12T06:59:05.119Z,13.00
2023-03-12T07:04:10.240Z,15.15
2023-03-12T07:09:13.900Z,19.77
2023-03-12T07:14:17.602Z,13.35
2023-03-12T07:19:22.693Z,10.98
2023-03-12T07:24:26.462Z,13.57
2023-03-12T07:29:30.278Z,18.77
2023-03-12T07:34:35.650Z,15.68
2023-03-12T07:39:39.627Z,14.35
2023-03-12T07:44:43.405Z,14.60
2023-03-12T07:49:48.668Z,13.05
2023-03-12T07:54:54.213Z,24.58
2023-03-12T07:59:58.066Z,19.42
2023-03-12T08:05:03.283Z,18.10
2023-03-12T08:10:09.457Z,18.30
2023-03-12T08:15:13.722Z,21.90
2023-03-12T08:20:19.063Z,15.57
2023-03-12T08:25:24.692Z,19.67
2023-03-12T08:30:30.310Z,19.45
2023-03-12T08:35:35.507Z,21.23
2023-03-12T08:40:39.379Z,22.10
2023-03-12T08:45:43.201Z,28.35
2023-03-12T08:50:48.352Z,37.13
2023-03-12T08:55:54.623Z,33.40
2023-03-12T09:00:59.249Z,40.12
2023-03-12T09:06:06.529Z,47.00
2023-03-12T09:11:11.897Z,45.80
2023-03-12T09:16:15.880Z,50.25
2023-03-12T09:21:20.966Z,56.00
2023-03-12T09:26:25.472Z,62.70
2023-03-12T09:31:29.288Z,59.72
2023-03-12T09:36:34.559Z,57.10
2023-03-12T09:41:40.821Z,60.42
2023-03-12T09:46:48.226Z,58.55
2023-03-12T09:51:56.736Z,58.27
2023-03-12T09:57:05.405Z,57.40
2023-03-12T10:02:43.356Z,56.30
2023-03-12T10:07:54.029Z,59.05
2023-03-12T10:13:15.464Z,63.75
2023-03-12T10:18:30.755Z,53.80
2023-03-12T10:23:50.802Z,53.45
2023-03-12T10:28:58.941Z,62.33
2023-03-12T10:34:04.359Z,58.47
2023-03-12T10:39:15.765Z,52.60
2023-03-12T10:44:23.360Z,65.25
2023-03-12T10:49:30.746Z,53.90
2023-03-12T10:54:38.412Z,59.22
2023-03-12T10:59:44.174Z,60.00
2023-03-12T11:04:52.494Z,51.75
2023-03-12T11:15:24.800Z,47.83
2023-03-12T11:20:30.317Z,48.22
2023-03-12T11:25:35.461Z,53.25
2023-03-12T11:30:41.705Z,44.67
2023-03-12T11:35:55.839Z,49.70
2023-03-12T11:41:13.051Z,41.35
2023-03-12T11:46:28.230Z,41.50
2023-03-12T11:51:45.850Z,34.72
2023-03-12T11:56:54.699Z,47.83
2023-03-12T12:02:13.928Z,34.70
2023-03-12T12:07:30.165Z,39.22
2023-03-12T12:12:52.677Z,34.53
2023-03-12T12:18:03.519Z,34.38
2023-03-12T12:23:18.511Z,34.72
2023-03-12T12:28:38.002Z,29.02
2023-03-12T12:33:57.109Z,39.53
2023-03-12T12:39:06.121Z,39.28
2023-03-12T12:44:16.034Z,32.95
2023-03-12T12:49:25.308Z,34.08
2023-03-12T12:54:36.092Z,36.67
2023-03-12T12:59:44.042Z,38.65
2023-03-12T13:04:48.911Z,34.47
2023-03-12T13:09:54.010Z,32.58
2023-03-12T13:15:00.855Z,34.90
2023-03-12T13:20:15.779Z,48.95
2023-03-12T13:25:31.432Z,37.20
2023-03-12T13:30:50.947Z,36.78
2023-03-12T13:36:07.890Z,29.27
2023-03-12T13:41:31.883Z,41.75
2023-03-12T13:46:45.338Z,39.88
2023-03-12T13:52:02.352Z,39.95
2023-03-12T13:57:13.128Z,34.28
2023-03-12T14:02:25.367Z,35.72
2023-03-12T14:07:51.931Z,36.50
2023-03-12T14:13:07.668Z,38.15
2023-03-12T14:18:19.184Z,32.97
2023-03-12T14:23:26.376Z,34.78
2023-03-12T14:28:31.985Z,41.17
2023-03-12T14:33:50.463Z,38.95
2023-03-12T14:39:01.133Z,34.22
2023-03-12T14:44:07.108Z,30.08
2023-03-12T14:49:21.106Z,36.30
2023-03-12T14:54:27.322Z,45.85
2023-03-12T14:59:33.054Z,34.08
2023-03-12T15:04:39.551Z,43.80
2023-03-12T15:09:45.184Z,38.10
2023-03-12T15:14:51.643Z,40.70
2023-03-12T15:19:57.303Z,30.75
2023-03-12T15:25:03.869Z,42.60
2023-03-12T15:30:24.109Z,31.87
2023-03-12T15:35:29.502Z,33.33
2023-03-12T15:40:33.557Z,37.80
2023-03-12T15:45:39.580Z,37.03
2023-03-12T15:50:46.611Z,39.47
2023-03-12T15:55:59.750Z,43.10
2023-03-12T16:01:12.024Z,39.80
2023-03-12T16:06:19.834Z,41.85
2023-03-12T16:11:26.913Z,40.40
2023-03-12T16:16:30.969Z,44.05
2023-03-12T16:21:36.139Z,42.35
2023-03-12T16:26:47.385Z,45.25
2023-03-12T16:31:54.354Z,43.28
2023-03-12T16:37:00.052Z,35.47
2023-03-12T16:42:06.145Z,43.87
2023-03-12T16:47:12.868Z,34.33
2023-03-12T16:52:19.797Z,43.05
2023-03-12T16:57:29.077Z,36.10
2023-03-12T17:02:33.145Z,33.58
2023-03-12T17:07:38.348Z,39.75
2023-03-12T17:12:42.398Z,49.00
2023-03-12T17:17:46.174Z,46.35
2023-03-12T17:22:51.743Z,38.20
2023-03-12T17:27:56.470Z,35.33
2023-03-12T17:33:03.670Z,53.10
2023-03-12T17:38:09.182Z,53.28
2023-03-12T17:43:13.569Z,53.33
2023-03-12T17:48:17.436Z,42.90
2023-03-12T17:53:22.555Z,51.00
2023-03-12T17:58:26.333Z,44.38
2023-03-12T18:03:30.147Z,45.17
2023-03-12T18:08:35.341Z,45.75
2023-03-12T18:13:40.902Z,52.90
2023-03-12T18:18:44.720Z,50.72
2023-03-12T18:23:49.771Z,53.90
2023-03-12T18:28:53.893Z,46.78
2023-03-12T18:33:57.576Z,52.40
2023-03-12T18:39:04.623Z,40.80
2023-03-12T18:44:08.385Z,43.55
2023-03-12T18:49:13.116Z,41.03
2023-03-12T18:54:18.326Z,35.78
2023-03-12T18:59:22.070Z,34.17
2023-03-12T19:04:26.046Z,38.90
2023-03-12T19:09:31.219Z,35.17
2023-03-12T19:14:34.986Z,44.53
2023-03-12T19:19:38.982Z,45.25
2023-03-12T19:24:44.497Z,50.03
2023-03-12T19:29:48.405Z,35.05
2023-03-12T19:34:52.437Z,44.45
2023-03-12T19:39:57.533Z,38.65
2023-03-12T19:45:01.387Z,39.35
2023-03-12T19:50:05.772Z,40.63
2023-03-12T19:55:11.978Z,46.35
2023-03-12T20:00:16.564Z,39.85
2023-03-12T20:05:20.356Z,43.40
2023-03-12T20:10:25.915Z,40.28
2023-03-12T20:15:29.800Z,55.40
2023-03-12T20:20:33.607Z,38.03
2023-03-12T20:25:41.624Z,49.20
2023-03-12T20:30:45.453Z,39.80
2023-03-12T20:35:50.541Z,44.58
2023-03-12T20:40:55.721Z,44.50
2023-03-12T20:45:59.593Z,47.70
2023-03-12T20:51:03.693Z,37.58
2023-03-12T20:56:09.805Z,43.22
2023-03-12T21:01:13.573Z,36.40
2023-03-12T21:06:17.493Z,43.70
2023-03-12T21:11:22.546Z,39.80
2023-03-12T21:16:26.301Z,48.10
2023-03-12T21:21:30.487Z,42.40
2023-03-12T21:26:35.863Z,42.97
2023-03-12T21:31:39.866Z,29.15
2023-03-12T21:36:43.671Z,44.72
2023-03-12T21:41:48.882Z,50.15
2023-03-12T21:46:52.903Z,35.38
2023-03-12T21:51:57.473Z,35.03
2023-03-12T21:57:03.364Z,32.35
2023-03-12T22:02:07.229Z,27.92
2023-03-12T22:07:10.908Z,33.05
2023-03-12T22:12:15.925Z,29.37
2023-03-12T22:17:19.719Z,24.70
2023-03-12T22:22:23.455Z,39.05
2023-03-12T22:27:28.792Z,24.23
2023-03-12T22:32:33.195Z,27.62
2023-03-12T22:37:36.960Z,31.50
2023-03-12T22:42:42.016Z,31.80
2023-03-12T22:47:46.573Z,34.72
2023-03-12T22:52:50.469Z,31.87
2023-03-12T22:57:55.550Z,25.67
2023-03-12T23:02:59.252Z,38.05
2023-03-12T23:08:02.940Z,26.27
2023-03-12T23:13:09.380Z,27.30
2023-03-12T23:18:13.140Z,30.02
2023-03-12T23:23:16.872Z,33.60
2023-03-12T23:28:22.015Z,31.30
2023-03-12T23:33:26.305Z,26.02
2023-03-12T23:38:30.945Z,31.65
2023-03-12T23:43:36.256Z,33.25
2023-03-12T23:48:41.123Z,35.50
2023-03-12T23:53:47.548Z,28.42
2023-03-12T23:58:52.836Z,37.70
